Time;durP1;ratioP1;P1;durP2;ratioP2;P2;SDS_P1;SDS_P2;PMS_P1;PMS_P2;Temp;Humidity;BMP_temperature;BMP_pressure;BME280_temperature;BME280_humidity;BME280_pressure;Samples;Min_cycle;Max_cycle;Signal;HPM_P1;HPM_P2
2022/07/30 00:01:05;;;;;;;7.10;5.57;;;;;;;25.51;55.09;99336.44;5051944;28;20204;-61
2022/07/30 00:03:33;;;;;;;8.80;5.40;;;;;;;25.59;55.01;99337.41;5051876;28;20197;-60
2022/07/30 00:06:01;;;;;;;5.35;5.10;;;;;;;25.51;55.20;99333.78;5051706;28;20239;-60
2022/07/30 00:08:28;;;;;;;7.43;5.07;;;;;;;25.48;55.52;99328.78;5051854;28;20210;-60
2022/07/30 00:10:55;;;;;;;5.20;4.90;;;;;;;25.52;55.47;99332.81;5051639;28;20203;-61
2022/07/30 00:13:22;;;;;;;6.97;5.18;;;;;;;25.47;55.39;99335.06;5051478;28;20237;-60
2022/07/30 00:15:49;;;;;;;6.18;4.85;;;;;;;25.45;55.55;99339.69;5049734;28;20203;-60
2022/07/30 00:18:16;;;;;;;5.22;4.88;;;;;;;25.45;55.68;99345.84;5031337;28;20201;-61
2022/07/30 00:20:43;;;;;;;5.53;5.03;;;;;;;25.45;55.43;99340.53;5031750;28;20205;-61
2022/07/30 00:23:11;;;;;;;5.88;5.28;;;;;;;25.30;55.87;99332.16;5031484;28;20288;-60
2022/07/30 00:25:39;;;;;;;5.10;4.80;;;;;;;25.35;55.96;99330.88;5031174;28;20225;-61
2022/07/30 00:28:06;;;;;;;6.75;5.15;;;;;;;25.36;56.08;99332.56;5031593;28;20202;-61
2022/07/30 00:30:33;;;;;;;5.25;4.95;;;;;;;25.35;56.03;99333.53;5031472;28;20288;-60
2022/07/30 00:33:00;;;;;;;6.45;4.97;;;;;;;25.41;56.23;99331.16;5031509;28;20200;-61
2022/07/30 00:35:27;;;;;;;5.65;5.10;;;;;;;25.37;56.51;99326.28;5031494;28;20280;-61
2022/07/30 00:37:54;;;;;;;5.35;5.05;;;;;;;25.37;56.58;99329.78;5031399;28;20232;-61
2022/07/30 00:40:22;;;;;;;5.65;5.25;;;;;;;25.34;56.59;99330.06;5031190;28;20602;-62
2022/07/30 00:42:49;;;;;;;5.50;4.78;;;;;;;25.31;56.78;99323.19;5031338;28;20201;-61
2022/07/30 00:45:18;;;;;;;5.57;5.10;;;;;;;25.20;56.90;99304.75;5031203;28;20228;-61
2022/07/30 00:47:45;;;;;;;5.15;4.80;;;;;;;25.27;57.34;99323.66;5031464;28;20197;-61
2022/07/30 00:50:13;;;;;;;7.30;5.13;;;;;;;25.29;57.36;99324.31;5031318;28;20669;-61
2022/07/30 00:52:41;;;;;;;5.63;4.93;;;;;;;25.39;57.26;99324.31;5031047;28;20252;-61
2022/07/30 00:55:12;;;;;;;5.18;4.80;;;;;;;25.46;56.96;99320.09;5031320;28;20208;-61
2022/07/30 00:57:41;;;;;;;5.43;4.93;;;;;;;25.42;57.09;99314.22;5030874;28;20205;-61
2022/07/30 01:00:11;;;;;;;5.75;5.28;;;;;;;25.46;57.21;99322.75;5030970;28;20197;-61
2022/07/30 01:02:38;;;;;;;5.50;5.10;;;;;;;25.36;57.37;99314.81;5030877;28;20648;-61
2022/07/30 01:05:06;;;;;;;5.45;5.05;;;;;;;25.37;57.55;99310.34;5030529;28;20709;-61
2022/07/30 01:07:34;;;;;;;5.32;5.13;;;;;;;25.32;57.74;99308.94;5030761;28;20280;-62
2022/07/30 01:10:01;;;;;;;5.43;5.13;;;;;;;25.32;57.80;99311.59;5030918;28;20259;-61
2022/07/30 01:12:28;;;;;;;5.70;5.40;;;;;;;25.28;58.06;99309.38;5030932;28;20201;-61
2022/07/30 01:14:58;;;;;;;5.45;4.93;;;;;;;25.27;58.19;99319.16;5030654;28;20237;-63
2022/07/30 01:17:25;;;;;;;5.03;4.72;;;;;;;25.18;58.19;99311.19;5030737;28;20198;-62
2022/07/30 01:19:57;;;;;;;6.30;5.22;;;;;;;25.23;58.40;99309.78;5030558;28;20197;-61
2022/07/30 01:22:44;;;;;;;5.40;5.00;;;;;;;25.31;58.17;99306.41;5030599;28;20211;-62
2022/07/30 01:25:17;;;;;;;5.68;4.95;;;;;;;25.30;58.07;99310.88;5030733;28;20221;-61
2022/07/30 01:27:50;;;;;;;5.85;4.72;;;;;;;25.11;58.45;99295.00;5030578;28;20197;-61
2022/07/30 01:30:23;;;;;;;5.45;5.00;;;;;;;25.16;58.56;99308.69;5030507;28;20224;-61
2022/07/30 01:32:53;;;;;;;5.40;4.90;;;;;;;25.21;58.67;99316.22;5030646;28;20207;-61
2022/07/30 01:35:23;;;;;;;5.30;5.00;;;;;;;25.15;58.89;99308.84;5029725;28;20197;-63
2022/07/30 01:37:53;;;;;;;5.32;4.72;;;;;;;25.02;58.87;99279.06;5030699;28;20733;-61
2022/07/30 01:40:20;;;;;;;5.35;4.75;;;;;;;24.99;59.01;99282.84;5030538;28;20619;-61
2022/07/30 01:42:53;;;;;;;5.68;5.15;;;;;;;25.10;59.39;99306.59;5030338;28;20208;-63
2022/07/30 01:45:22;;;;;;;6.00;5.50;;;;;;;25.09;59.52;99304.91;5030274;28;20284;-63
2022/07/30 01:47:52;;;;;;;5.82;5.05;;;;;;;25.06;59.63;99307.84;5030457;28;20687;-62
2022/07/30 01:50:21;;;;;;;5.57;5.13;;;;;;;25.11;59.62;99304.78;5030372;28;20198;-62
2022/07/30 01:52:52;;;;;;;6.10;5.60;;;;;;;25.07;59.91;99301.56;5030288;28;20205;-61
2022/07/30 01:55:24;;;;;;;5.75;5.20;;;;;;;25.08;60.28;99303.22;5030086;28;20194;-61
2022/07/30 01:57:55;;;;;;;6.18;4.93;;;;;;;25.03;60.65;99302.00;5030156;28;20205;-61
2022/07/30 02:00:24;;;;;;;5.28;4.97;;;;;;;25.03;60.69;99304.66;5030174;28;20204;-60
2022/07/30 02:02:51;;;;;;;5.25;4.95;;;;;;;24.99;61.07;99308.56;5030058;28;20223;-60
2022/07/30 02:05:18;;;;;;;5.28;4.88;;;;;;;24.96;61.16;99307.00;5029916;28;20673;-62
2022/07/30 02:07:53;;;;;;;6.18;5.25;;;;;;;24.91;61.83;99311.88;5029748;28;20330;-60
2022/07/30 02:10:26;;;;;;;5.95;5.40;;;;;;;24.84;62.68;99314.25;5029945;28;20288;-61
2022/07/30 02:12:56;;;;;;;6.82;5.50;;;;;;;24.57;63.43;99301.69;5029755;28;20316;-62
2022/07/30 02:15:28;;;;;;;7.18;5.55;;;;;;;24.46;63.62;99312.41;5030308;28;20287;-60
2022/07/30 02:18:00;;;;;;;6.55;5.95;;;;;;;24.40;63.29;99315.59;5030276;28;20578;-61
2022/07/30 02:20:30;;;;;;;6.75;5.57;;;;;;;24.35;62.56;99309.88;5029676;28;20201;-61
2022/07/30 02:23:01;;;;;;;6.28;5.88;;;;;;;24.25;62.30;99309.03;5029698;28;20197;-61
2022/07/30 02:25:29;;;;;;;6.68;5.82;;;;;;;24.23;62.14;99310.97;5029776;28;20701;-61
2022/07/30 02:28:02;;;;;;;6.10;5.70;;;;;;;24.15;62.79;99305.47;5029789;28;20304;-63
2022/07/30 02:30:31;;;;;;;5.78;5.47;;;;;;;24.09;63.35;99308.66;5029581;28;20228;-61
2022/07/30 02:33:03;;;;;;;7.57;5.43;;;;;;;24.08;63.37;99299.84;5029473;28;20194;-62
2022/07/30 02:35:31;;;;;;;8.40;6.15;;;;;;;24.09;63.45;99300.69;5029475;28;20284;-61
2022/07/30 02:38:00;;;;;;;5.95;5.35;;;;;;;23.97;64.24;99304.41;5029738;28;20673;-60
2022/07/30 02:40:28;;;;;;;5.72;5.38;;;;;;;23.81;65.02;99296.97;5029551;28;20695;-60
2022/07/30 02:42:58;;;;;;;6.43;5.60;;;;;;;23.75;65.42;99303.63;5029565;28;20267;-61
2022/07/30 02:45:26;;;;;;;9.50;7.25;;;;;;;23.69;65.83;99304.19;5029703;28;20567;-60
2022/07/30 02:47:59;;;;;;;7.20;6.63;;;;;;;23.67;65.86;99305.28;5031940;28;20288;-61
2022/07/30 02:50:27;;;;;;;6.30;5.80;;;;;;;23.71;65.96;99302.22;5033689;28;20207;-61
2022/07/30 02:52:56;;;;;;;6.30;5.90;;;;;;;23.68;65.97;99291.91;5033551;28;20208;-61
2022/07/30 02:55:24;;;;;;;6.50;6.00;;;;;;;23.82;65.88;99303.94;5033513;28;20203;-60
2022/07/30 02:57:53;;;;;;;6.20;5.68;;;;;;;23.93;65.27;99295.88;5033102;28;20201;-60
2022/07/30 03:00:23;;;;;;;5.97;5.68;;;;;;;23.94;65.29;99302.88;5033492;28;20588;-61
2022/07/30 03:02:52;;;;;;;6.88;6.35;;;;;;;23.88;65.70;99301.59;5033365;28;20223;-61
2022/07/30 03:05:20;;;;;;;7.70;5.95;;;;;;;23.79;66.01;99293.63;5033247;28;20212;-60
2022/07/30 03:07:48;;;;;;;6.18;5.75;;;;;;;23.75;66.26;99292.19;5053031;28;20205;-61
2022/07/30 03:10:16;;;;;;;7.72;5.78;;;;;;;23.67;66.43;99290.22;5061479;28;20814;-61
2022/07/30 03:12:45;;;;;;;6.97;6.18;;;;;;;23.64;66.66;99287.81;5062611;28;20196;-61
2022/07/30 03:15:13;;;;;;;8.30;6.07;;;;;;;23.65;66.84;99286.84;5061327;28;20571;-61
2022/07/30 03:17:44;;;;;;;6.30;5.80;;;;;;;23.57;66.87;99275.25;5061007;28;20723;-61
2022/07/30 03:20:14;;;;;;;6.43;6.03;;;;;;;23.73;66.18;99281.72;5058744;28;20668;-60
2022/07/30 03:22:45;;;;;;;5.80;5.50;;;;;;;23.76;65.80;99278.81;5060595;28;20288;-60
2022/07/30 03:25:16;;;;;;;7.00;5.78;;;;;;;23.76;66.09;99284.13;5058927;28;20235;-60
2022/07/30 03:27:44;;;;;;;7.15;5.80;;;;;;;23.68;67.07;99283.09;5060132;28;20327;-61
2022/07/30 03:30:12;;;;;;;8.10;6.38;;;;;;;23.60;67.63;99282.91;5061963;28;20623;-60
2022/07/30 03:32:41;;;;;;;7.43;6.43;;;;;;;23.49;67.88;99286.44;5070912;28;20200;-63
2022/07/30 03:35:09;;;;;;;7.20;6.50;;;;;;;23.56;67.78;99290.31;5066751;28;20196;-59
2022/07/30 03:37:39;;;;;;;6.50;5.93;;;;;;;23.57;67.69;99291.13;5051430;28;20200;-59
2022/07/30 03:40:08;;;;;;;6.68;6.07;;;;;;;23.46;67.06;99262.88;5052435;28;20593;-59
2022/07/30 03:42:36;;;;;;;9.10;6.65;;;;;;;23.65;67.12;99291.31;5052447;28;20280;-60
2022/07/30 03:45:05;;;;;;;7.03;6.43;;;;;;;23.61;67.26;99296.03;5052543;28;20199;-59
2022/07/30 03:47:33;;;;;;;12.30;7.55;;;;;;;23.74;66.92;99296.66;5052579;28;20586;-59
2022/07/30 03:50:02;;;;;;;7.85;7.07;;;;;;;23.88;66.24;99296.31;5052288;28;20235;-61
2022/07/30 03:52:29;;;;;;;9.98;7.65;;;;;;;24.11;65.17;99296.94;5052477;28;20254;-60
2022/07/30 03:54:56;;;;;;;9.85;8.95;;;;;;;24.27;64.88;99299.09;5052446;28;20193;-62
2022/07/30 03:57:23;;;;;;;8.75;7.95;;;;;;;24.48;63.89;99307.81;5052213;28;20840;-63
2022/07/30 03:59:51;;;;;;;8.90;7.80;;;;;;;25.22;61.31;99308.13;5059439;28;20310;-63
2022/07/30 04:02:18;;;;;;;8.05;6.95;;;;;;;26.47;56.53;99317.50;5060231;28;20587;-63
2022/07/30 04:04:45;;;;;;;10.68;8.48;;;;;;;27.78;51.85;99325.59;5061844;28;20598;-62
2022/07/30 04:07:14;;;;;;;7.68;6.70;;;;;;;28.94;48.65;99316.03;5060397;28;20738;-62
2022/07/30 04:09:40;;;;;;;8.23;7.63;;;;;;;30.13;44.92;99331.28;5059679;28;20204;-61
2022/07/30 04:12:08;;;;;;;8.00;7.00;;;;;;;30.94;42.71;99340.72;5057710;28;20196;-61
2022/07/30 04:14:42;;;;;;;8.95;7.65;;;;;;;31.47;41.64;99338.97;5061798;28;20310;-61
2022/07/30 04:17:16;;;;;;;8.77;8.07;;;;;;;32.14;39.95;99336.25;5058225;28;20678;-61
2022/07/30 04:19:48;;;;;;;7.82;7.13;;;;;;;33.11;38.13;99330.38;5057592;28;20193;-62
2022/07/30 04:22:21;;;;;;;9.30;7.00;;;;;;;34.38;35.99;99349.94;5059194;28;20284;-61
2022/07/30 04:24:50;;;;;;;7.85;6.78;;;;;;;35.04;34.40;99352.00;5060031;28;20287;-64
2022/07/30 04:27:18;;;;;;;7.25;6.63;;;;;;;35.61;33.25;99346.00;5061029;28;20266;-64
2022/07/30 04:29:46;;;;;;;7.68;7.00;;;;;;;36.51;31.95;99345.16;5060065;28;20206;-64
2022/07/30 04:32:13;;;;;;;8.05;7.32;;;;;;;37.08;30.80;99355.03;5059335;28;20196;-62
2022/07/30 04:34:47;;;;;;;9.75;6.80;;;;;;;36.70;31.00;99335.31;5056616;28;20197;-63
2022/07/30 04:37:17;;;;;;;7.20;6.60;;;;;;;36.73;31.29;99359.22;5067970;28;20192;-63
2022/07/30 04:39:44;;;;;;;6.95;6.45;;;;;;;37.38;30.55;99362.53;5071533;28;20692;-63
2022/07/30 04:42:12;;;;;;;7.25;6.50;;;;;;;38.27;28.71;99348.53;5071135;28;20203;-61
2022/07/30 04:44:39;;;;;;;7.35;6.63;;;;;;;38.81;28.00;99358.50;5071776;28;20202;-64
2022/07/30 04:47:06;;;;;;;8.02;6.30;;;;;;;38.99;27.67;99356.81;5071209;28;20230;-60
2022/07/30 04:49:34;;;;;;;8.18;7.65;;;;;;;39.63;27.35;99353.25;5060988;28;20200;-63
2022/07/30 04:52:02;;;;;;;7.03;6.55;;;;;;;40.04;26.71;99348.78;5051176;28;20206;-59
2022/07/30 04:54:38;;;;;;;8.85;8.18;;;;;;;40.24;26.23;99360.91;5051102;28;20508;-63
2022/07/30 04:57:07;;;;;;;7.57;7.07;;;;;;;40.02;26.34;99364.50;5051060;28;20218;-63
2022/07/30 04:59:36;;;;;;;7.13;6.43;;;;;;;39.36;26.99;99357.47;5053838;28;20655;-63
2022/07/30 05:02:04;;;;;;;11.10;7.75;;;;;;;39.59;26.94;99351.25;5059776;28;20196;-63
2022/07/30 05:04:32;;;;;;;7.65;7.15;;;;;;;40.12;26.53;99357.38;5060198;28;20575;-63
2022/07/30 05:07:00;;;;;;;7.35;6.95;;;;;;;40.66;25.93;99360.66;5053932;28;20653;-64
2022/07/30 05:09:27;;;;;;;10.32;9.63;;;;;;;40.71;25.71;99363.53;5066845;28;20646;-63
2022/07/30 05:11:56;;;;;;;8.90;8.38;;;;;;;40.97;25.60;99359.38;5065978;28;20202;-63
2022/07/30 05:14:24;;;;;;;9.70;7.35;;;;;;;40.17;26.12;99362.94;5054591;28;20227;-63
2022/07/30 05:16:51;;;;;;;7.85;6.43;;;;;;;39.69;26.60;99346.06;5050829;28;20274;-63
2022/07/30 05:19:19;;;;;;;7.20;6.53;;;;;;;39.98;26.40;99368.75;5058624;28;20202;-63
2022/07/30 05:21:46;;;;;;;7.88;7.28;;;;;;;40.11;26.42;99366.59;5060188;28;20209;-62
2022/07/30 05:24:13;;;;;;;7.90;7.30;;;;;;;40.30;26.37;99367.28;5058756;28;20279;-64
2022/07/30 05:26:41;;;;;;;11.43;10.27;;;;;;;40.55;26.01;99367.81;5058219;28;20215;-64
2022/07/30 05:29:09;;;;;;;11.38;7.38;;;;;;;40.20;26.15;99337.97;5057531;28;20679;-63
2022/07/30 05:31:36;;;;;;;7.63;6.93;;;;;;;40.40;26.28;99358.53;5056796;28;20198;-64
2022/07/30 05:34:03;;;;;;;7.18;6.68;;;;;;;40.50;25.93;99350.56;5057338;28;20195;-65
2022/07/30 05:36:30;;;;;;;7.47;6.78;;;;;;;41.14;24.96;99343.06;5058975;28;20258;-64
2022/07/30 05:38:57;;;;;;;6.90;6.30;;;;;;;41.45;25.09;99358.81;5058140;28;20191;-63
2022/07/30 05:41:26;;;;;;;6.55;5.93;;;;;;;41.59;24.53;99357.44;5055440;28;20195;-63
2022/07/30 05:43:53;;;;;;;6.97;6.38;;;;;;;41.54;25.04;99359.28;5058462;28;20674;-62
2022/07/30 05:46:22;;;;;;;8.10;7.28;;;;;;;41.82;24.52;99361.03;5059708;28;20221;-62
2022/07/30 05:48:48;;;;;;;7.00;6.53;;;;;;;41.95;24.66;99355.22;5058169;28;20625;-66
2022/07/30 05:51:17;;;;;;;9.25;6.60;;;;;;;41.69;24.83;99360.31;5057813;28;20195;-64
2022/07/30 05:53:44;;;;;;;7.25;6.72;;;;;;;40.68;25.95;99366.69;5055344;28;20254;-64
2022/07/30 05:56:11;;;;;;;7.78;6.65;;;;;;;40.73;25.63;99352.41;5058387;28;20195;-63
2022/07/30 05:58:38;;;;;;;9.10;6.80;;;;;;;40.65;25.98;99361.72;5059311;28;20203;-62
2022/07/30 06:01:05;;;;;;;8.40;7.32;;;;;;;40.87;25.66;99353.72;5057603;28;20200;-65
2022/07/30 06:03:34;;;;;;;7.57;6.75;;;;;;;40.33;26.48;99346.94;5058185;28;20197;-62
2022/07/30 06:06:02;;;;;;;8.25;6.82;;;;;;;40.77;25.89;99353.53;5059662;28;20702;-65
2022/07/30 06:08:29;;;;;;;12.48;6.53;;;;;;;40.74;25.91;99354.88;5056029;28;20222;-64
2022/07/30 06:10:56;;;;;;;6.88;6.38;;;;;;;40.53;26.10;99355.50;5068778;28;20692;-64
2022/07/30 06:13:23;;;;;;;7.47;6.93;;;;;;;41.05;25.48;99349.97;5063331;28;20669;-64
2022/07/30 06:15:50;;;;;;;7.43;6.82;;;;;;;40.49;26.10;99308.09;5061105;28;20211;-64
2022/07/30 06:18:17;;;;;;;6.80;6.40;;;;;;;40.16;25.97;99355.03;5049637;28;20187;-63
2022/07/30 06:20:45;;;;;;;6.95;6.40;;;;;;;39.83;26.38;99353.75;5049748;28;20210;-63
2022/07/30 06:23:12;;;;;;;7.03;6.13;;;;;;;39.32;26.74;99348.13;5049255;28;20271;-63
2022/07/30 06:25:39;;;;;;;7.90;6.72;;;;;;;40.15;25.75;99351.47;5049955;28;20602;-63
2022/07/30 06:28:06;;;;;;;7.72;7.00;;;;;;;40.30;25.85;99359.13;5049205;28;20220;-63
2022/07/30 06:30:33;;;;;;;6.63;6.00;;;;;;;40.34;25.47;99359.47;5049561;28;20672;-62
2022/07/30 06:33:00;;;;;;;6.85;6.32;;;;;;;40.42;25.70;99353.66;5049570;28;20210;-62
2022/07/30 06:35:27;;;;;;;8.30;6.93;;;;;;;40.00;26.20;99358.47;5049352;28;20208;-62
2022/07/30 06:37:55;;;;;;;6.82;6.32;;;;;;;39.89;26.70;99358.25;5049472;28;20218;-62
2022/07/30 06:40:22;;;;;;;7.45;6.05;;;;;;;40.02;26.43;99362.59;5049348;28;20598;-62
2022/07/30 06:42:49;;;;;;;7.60;6.88;;;;;;;40.31;25.96;99362.69;5049323;28;20690;-62
2022/07/30 06:45:16;;;;;;;6.50;6.00;;;;;;;40.05;26.40;99366.75;5049543;28;20279;-63
2022/07/30 06:47:43;;;;;;;8.82;6.90;;;;;;;40.06;26.38;99358.34;5054398;28;20207;-63
2022/07/30 06:50:10;;;;;;;13.55;10.75;;;;;;;39.99;26.68;99365.78;5054785;28;20192;-63
2022/07/30 06:52:37;;;;;;;7.03;6.38;;;;;;;39.26;26.87;99358.06;5060732;28;20194;-62
2022/07/30 06:55:06;;;;;;;8.20;5.70;;;;;;;38.98;27.05;99358.69;5063284;28;20283;-62
2022/07/30 06:57:33;;;;;;;7.35;6.72;;;;;;;39.09;27.13;99349.75;5060119;28;20254;-64
2022/07/30 07:00:00;;;;;;;16.73;6.70;;;;;;;38.85;27.91;99335.25;5058294;28;20282;-64
2022/07/30 07:02:27;;;;;;;7.45;6.30;;;;;;;38.95;27.41;99325.72;5058090;28;20664;-63
2022/07/30 07:04:54;;;;;;;7.60;7.00;;;;;;;39.14;26.71;99338.22;5057063;28;20227;-64
2022/07/30 07:07:21;;;;;;;7.13;6.43;;;;;;;38.96;27.18;99324.66;5057302;28;20216;-64
2022/07/30 07:09:48;;;;;;;6.30;6.00;;;;;;;38.01;27.82;99324.44;5057291;28;20206;-63
2022/07/30 07:12:16;;;;;;;7.05;6.43;;;;;;;38.04;27.93;99310.44;5060188;28;20601;-64
2022/07/30 07:14:43;;;;;;;8.02;6.25;;;;;;;37.93;28.25;99306.59;5061343;28;20223;-65
2022/07/30 07:17:11;;;;;;;6.95;6.30;;;;;;;38.26;27.35;99329.81;5056782;28;20282;-65
2022/07/30 07:19:38;;;;;;;6.82;6.20;;;;;;;38.20;27.33;99330.72;5063763;28;20241;-63
2022/07/30 07:22:05;;;;;;;6.90;6.55;;;;;;;38.03;28.17;99327.78;5049104;28;20200;-64
2022/07/30 07:24:32;;;;;;;7.82;6.40;;;;;;;38.43;27.59;99326.25;5056296;28;20633;-63
2022/07/30 07:26:59;;;;;;;6.20;5.70;;;;;;;38.30;27.22;99325.56;5057090;28;20216;-61
2022/07/30 07:29:27;;;;;;;7.07;6.30;;;;;;;37.93;27.44;99314.72;5058816;28;20191;-63
2022/07/30 07:31:54;;;;;;;7.60;6.53;;;;;;;38.12;28.30;99311.00;5059210;28;20743;-63
2022/07/30 07:34:21;;;;;;;7.28;6.57;;;;;;;38.07;27.75;99308.13;5070380;28;20196;-62
2022/07/30 07:36:48;;;;;;;7.47;6.53;;;;;;;38.41;27.52;99311.25;5072527;28;20198;-62
2022/07/30 07:39:15;;;;;;;6.68;6.28;;;;;;;39.04;27.19;99321.66;5070014;28;20200;-63
2022/07/30 07:41:42;;;;;;;7.15;6.65;;;;;;;38.91;26.60;99317.25;5067723;28;20202;-63
2022/07/30 07:44:09;;;;;;;7.88;6.18;;;;;;;38.41;28.02;99306.66;5031679;28;20286;-62
2022/07/30 07:46:37;;;;;;;6.70;6.30;;;;;;;38.08;28.16;99319.81;5031763;28;20207;-63
2022/07/30 07:49:04;;;;;;;7.75;7.00;;;;;;;38.82;27.14;99314.03;5042115;28;20222;-63
2022/07/30 07:51:31;;;;;;;6.55;5.90;;;;;;;39.82;26.17;99296.91;5068171;28;20219;-63
2022/07/30 07:53:58;;;;;;;6.88;6.30;;;;;;;39.79;25.66;99272.91;5062555;28;20235;-63
2022/07/30 07:56:25;;;;;;;7.70;6.65;;;;;;;40.76;24.92;99313.78;5054976;28;20202;-63
2022/07/30 07:58:52;;;;;;;7.18;6.55;;;;;;;41.52;24.54;99302.28;5061140;28;20588;-63
2022/07/30 08:01:20;;;;;;;6.85;6.15;;;;;;;41.24;24.19;99305.09;5069247;28;20662;-61
2022/07/30 08:03:48;;;;;;;7.57;6.20;;;;;;;41.26;24.17;99281.16;5071141;28;20199;-63
2022/07/30 08:06:15;;;;;;;15.63;6.30;;;;;;;40.97;24.77;99289.38;5071003;28;20290;-62
2022/07/30 08:08:42;;;;;;;7.47;6.25;;;;;;;41.47;24.33;99312.25;5069928;28;20299;-60
2022/07/30 08:11:09;;;;;;;6.85;6.38;;;;;;;41.54;24.20;99304.78;5062295;28;20202;-61
2022/07/30 08:13:36;;;;;;;7.55;6.38;;;;;;;41.87;23.55;99303.88;5059453;28;20225;-62
2022/07/30 08:16:03;;;;;;;9.90;6.10;;;;;;;42.54;23.18;99306.34;5060149;28;20278;-60
2022/07/30 08:18:30;;;;;;;7.05;6.45;;;;;;;42.64;22.96;99309.19;5062309;28;20195;-60
2022/07/30 08:20:59;;;;;;;9.90;7.03;;;;;;;42.82;23.28;99310.72;5061338;28;20222;-58
2022/07/30 08:23:25;;;;;;;8.63;7.07;;;;;;;43.06;22.74;99280.09;5053457;28;20200;-64
2022/07/30 08:25:52;;;;;;;9.45;6.20;;;;;;;43.53;22.71;99298.47;5058551;28;20200;-62
2022/07/30 08:28:19;;;;;;;11.77;7.38;;;;;;;43.50;22.53;99292.69;5066860;28;20778;-65
2022/07/30 08:30:48;;;;;;;8.55;6.18;;;;;;;42.92;22.45;99289.78;5060734;28;20311;-65
2022/07/30 08:33:15;;;;;;;9.98;6.28;;;;;;;41.68;23.18;99290.53;5060595;28;20208;-63
2022/07/30 08:35:42;;;;;;;7.55;5.88;;;;;;;40.22;24.79;99296.94;5060007;28;20286;-61
2022/07/30 08:38:12;;;;;;;6.82;6.25;;;;;;;39.38;25.99;99273.88;5061741;28;20188;-62
2022/07/30 08:40:39;;;;;;;8.27;6.32;;;;;;;39.39;25.68;99279.09;5053855;28;20199;-62
2022/07/30 08:43:08;;;;;;;8.15;7.30;;;;;;;39.28;25.86;99270.94;5051399;28;20196;-61
2022/07/30 08:45:35;;;;;;;6.53;6.13;;;;;;;38.51;26.95;99276.25;5051140;28;20951;-62
2022/07/30 08:48:07;;;;;;;6.90;6.30;;;;;;;38.30;27.96;99268.63;5050949;28;20220;-61
2022/07/30 08:50:34;;;;;;;6.95;6.53;;;;;;;38.57;27.60;99272.69;5051247;28;20227;-61
2022/07/30 08:53:03;;;;;;;7.43;6.75;;;;;;;38.16;28.33;99267.97;5051188;28;20200;-63
2022/07/30 08:55:32;;;;;;;6.82;6.43;;;;;;;38.57;27.82;99258.28;5051096;28;20719;-63
2022/07/30 08:57:59;;;;;;;5.70;5.30;;;;;;;38.35;26.71;99257.94;5051012;28;20201;-63
2022/07/30 09:00:26;;;;;;;8.95;5.65;;;;;;;38.60;26.81;99257.81;5050685;28;20196;-63
2022/07/30 09:02:55;;;;;;;6.05;4.82;;;;;;;38.40;25.76;99255.34;5050921;28;20202;-61
2022/07/30 09:05:23;;;;;;;5.15;4.80;;;;;;;38.22;26.49;99226.41;5050813;28;20657;-61
2022/07/30 09:07:50;;;;;;;5.60;4.97;;;;;;;38.11;26.20;99251.59;5050948;28;20232;-61
2022/07/30 09:10:18;;;;;;;5.15;4.72;;;;;;;38.02;25.71;99255.66;5050741;28;20287;-61
2022/07/30 09:12:46;;;;;;;5.00;4.72;;;;;;;38.05;25.48;99241.63;5050430;28;20210;-62
2022/07/30 09:15:16;;;;;;;5.32;4.93;;;;;;;37.85;26.41;99236.47;5050589;28;20212;-62
2022/07/30 09:17:54;;;;;;;5.57;4.82;;;;;;;37.52;27.37;99227.84;5050628;28;20204;-61
2022/07/30 09:20:23;;;;;;;6.00;5.05;;;;;;;37.72;27.12;99231.19;5050421;28;20355;-63
2022/07/30 09:22:53;;;;;;;5.60;5.30;;;;;;;37.90;26.74;99225.78;5050522;28;20200;-63
2022/07/30 09:25:36;;;;;;;5.53;5.15;;;;;;;38.14;26.75;99213.19;5051419;28;20200;-62
2022/07/30 09:28:05;;;;;;;5.10;4.70;;;;;;;37.87;26.41;99215.38;5056724;28;20321;-62
2022/07/30 09:30:47;;;;;;;5.50;5.07;;;;;;;38.19;25.81;99207.06;5067296;28;20196;-60
2022/07/30 09:33:15;;;;;;;5.80;5.40;;;;;;;38.31;26.19;99210.66;5040859;28;20614;-60
2022/07/30 09:35:43;;;;;;;5.30;4.80;;;;;;;38.76;25.90;99203.72;5030219;28;20219;-61
2022/07/30 09:38:11;;;;;;;5.05;4.85;;;;;;;38.61;25.46;99208.75;5030643;28;20591;-60
2022/07/30 09:40:38;;;;;;;5.50;4.65;;;;;;;38.42;24.75;99199.84;5057371;28;20198;-60
2022/07/30 09:43:08;;;;;;;5.15;4.75;;;;;;;38.32;25.64;99193.31;5068339;28;20673;-62
2022/07/30 09:45:35;;;;;;;4.65;4.45;;;;;;;38.22;24.94;99188.47;5069933;28;20206;-62
2022/07/30 09:48:03;;;;;;;5.32;5.03;;;;;;;38.28;25.11;99194.84;5069915;28;20219;-62
2022/07/30 09:50:30;;;;;;;5.20;4.80;;;;;;;38.34;25.74;99191.22;5069880;28;20225;-61
2022/07/30 09:53:06;;;;;;;5.50;5.00;;;;;;;38.73;25.27;99190.59;5070107;28;20272;-60
2022/07/30 09:55:35;;;;;;;5.20;4.93;;;;;;;38.94;25.44;99191.94;5069820;28;20207;-61
2022/07/30 09:58:04;;;;;;;6.05;5.65;;;;;;;39.29;24.90;99180.22;5066172;28;20215;-62
2022/07/30 10:00:35;;;;;;;8.43;5.90;;;;;;;39.45;25.63;99183.09;5065406;28;20222;-60
2022/07/30 10:03:15;;;;;;;5.22;4.88;;;;;;;39.34;25.17;99186.63;5060050;28;20210;-61
2022/07/30 10:05:51;;;;;;;5.00;4.70;;;;;;;38.93;24.05;99187.56;5063151;28;20193;-61
2022/07/30 10:08:18;;;;;;;8.48;5.32;;;;;;;38.49;25.52;99178.84;5070163;28;20234;-61
2022/07/30 10:10:46;;;;;;;5.20;4.85;;;;;;;38.48;25.89;99176.41;5069664;28;20268;-60
2022/07/30 10:13:14;;;;;;;5.07;4.65;;;;;;;38.48;25.79;99170.97;5064184;28;20741;-61
2022/07/30 10:15:44;;;;;;;5.25;4.85;;;;;;;38.30;25.20;99169.16;5060474;28;20191;-61
2022/07/30 10:18:12;;;;;;;5.50;5.20;;;;;;;38.39;25.20;99166.91;5059712;28;20188;-61
2022/07/30 10:20:39;;;;;;;5.03;4.50;;;;;;;38.33;25.12;99167.88;5058270;28;20200;-61
2022/07/30 10:23:08;;;;;;;4.22;4.03;;;;;;;38.31;25.26;99162.66;5059719;28;20194;-62
2022/07/30 10:25:35;;;;;;;4.60;4.38;;;;;;;37.79;24.90;99156.09;5059696;28;20192;-63
2022/07/30 10:28:03;;;;;;;4.60;4.30;;;;;;;37.35;25.22;99143.72;5069307;28;20223;-63
2022/07/30 10:30:31;;;;;;;4.70;4.30;;;;;;;37.03;26.02;99151.91;5069730;28;20206;-61
2022/07/30 10:33:00;;;;;;;4.25;3.95;;;;;;;36.87;25.29;99151.69;5069404;28;20203;-62
2022/07/30 10:35:27;;;;;;;4.70;4.28;;;;;;;36.86;25.75;99133.78;5069387;28;20212;-62
2022/07/30 10:37:57;;;;;;;5.25;4.78;;;;;;;36.80;26.60;99129.28;5069604;28;20202;-61
2022/07/30 10:40:30;;;;;;;5.05;4.75;;;;;;;36.62;26.95;99122.72;5069326;28;20233;-60
2022/07/30 10:43:17;;;;;;;4.65;4.35;;;;;;;36.42;27.35;99116.69;5069375;28;20279;-62
2022/07/30 10:45:50;;;;;;;4.85;4.40;;;;;;;36.30;27.41;99130.06;5069486;28;20199;-62
2022/07/30 10:48:20;;;;;;;4.88;4.57;;;;;;;36.23;27.19;99118.47;5069382;28;20239;-61
2022/07/30 10:50:52;;;;;;;4.72;4.40;;;;;;;35.98;27.64;99114.88;5069246;28;20291;-60
2022/07/30 10:53:37;;;;;;;4.38;4.18;;;;;;;35.83;28.05;99112.47;5069105;28;20196;-62
2022/07/30 10:56:17;;;;;;;4.53;4.32;;;;;;;35.81;28.04;99098.34;5069156;28;20291;-62
2022/07/30 10:59:05;;;;;;;4.82;4.30;;;;;;;35.60;28.44;99101.34;5069314;28;20238;-62
2022/07/30 11:02:08;;;;;;;8.20;4.70;;;;;;;35.53;29.28;99098.69;5069436;28;20706;-61
2022/07/30 11:04:37;;;;;;;5.25;4.93;;;;;;;35.27;30.12;99093.41;5063084;28;20196;-61
2022/07/30 11:07:28;;;;;;;5.30;4.72;;;;;;;35.09;29.64;99079.75;5058155;28;20204;-62
2022/07/30 11:09:59;;;;;;;4.93;4.45;;;;;;;35.15;30.05;99098.59;5061636;28;20220;-63
2022/07/30 11:12:53;;;;;;;4.75;4.55;;;;;;;35.02;30.65;99085.13;5072800;28;20230;-63
2022/07/30 11:15:21;;;;;;;4.63;4.43;;;;;;;34.93;28.79;99086.41;5067926;28;20200;-63
2022/07/30 11:18:06;;;;;;;4.40;4.20;;;;;;;34.73;29.07;99031.69;5072972;28;20218;-62
2022/07/30 11:20:35;;;;;;;4.90;4.60;;;;;;;35.07;29.53;99077.25;5072953;28;20218;-62
2022/07/30 11:23:37;;;;;;;4.68;4.47;;;;;;;34.92;29.73;99071.28;5072608;28;20198;-62
2022/07/30 11:26:04;;;;;;;5.85;4.60;;;;;;;34.99;29.64;99072.06;5055281;28;20239;-62
2022/07/30 11:28:40;;;;;;;5.32;4.22;;;;;;;35.00;29.25;99070.19;5068760;28;20327;-62
2022/07/30 11:31:34;;;;;;;4.57;4.38;;;;;;;35.19;27.44;99066.63;5071231;28;20223;-62
2022/07/30 11:34:25;;;;;;;4.97;4.30;;;;;;;35.21;27.56;99054.59;5072409;28;20206;-61
2022/07/30 11:37:15;;;;;;;4.15;3.85;;;;;;;35.15;28.00;99044.63;5072203;28;20211;-62
2022/07/30 11:40:08;;;;;;;4.75;4.32;;;;;;;35.21;29.06;99040.28;5072625;28;20687;-62
2022/07/30 11:42:37;;;;;;;4.53;4.13;;;;;;;35.11;29.29;99047.97;5072530;28;20206;-61
2022/07/30 11:45:25;;;;;;;4.85;4.20;;;;;;;35.18;29.70;99030.72;5062285;28;20197;-61